createdAt,value
2022-12-28T00:02:14.413Z,11.6
2022-12-28T00:12:23.054Z,11.3
2022-12-28T00:22:31.259Z,11.9
2022-12-28T00:32:39.330Z,11.2
2022-12-28T00:42:48.668Z,11.1
2022-12-28T00:52:56.650Z,10.8
2022-12-28T01:03:04.716Z,10.8
2022-12-28T01:13:12.689Z,10.7
2022-12-28T01:23:21.798Z,11
2022-12-28T01:33:29.889Z,11.5
2022-12-28T01:43:37.883Z,11.5
2022-12-28T01:53:45.887Z,11.2
2022-12-28T02:03:54.914Z,11.2
2022-12-28T02:14:02.802Z,11.3
2022-12-28T02:24:15.160Z,11.1
2022-12-28T02:34:20.898Z,10.6
2022-12-28T02:44:28.860Z,10.7
2022-12-28T02:54:37.215Z,10.5
2022-12-28T03:04:46.231Z,10.2
2022-12-28T03:14:54.464Z,10.4
2022-12-28T03:25:02.514Z,10.8
2022-12-28T03:35:10.790Z,11
2022-12-28T03:45:44.828Z,10.8
2022-12-28T03:55:24.788Z,10.8
2022-12-28T04:05:32.862Z,10.6
2022-12-28T04:15:40.736Z,10.7
2022-12-28T04:25:48.732Z,11
2022-12-28T04:35:58.040Z,10.8
2022-12-28T04:46:06.238Z,10.9
2022-12-28T04:56:14.108Z,10.9
2022-12-28T05:06:22.132Z,10.6
2022-12-28T05:16:30.155Z,9.8
2022-12-28T05:26:38.245Z,9.7
2022-12-28T05:36:47.086Z,9.8
2022-12-28T05:46:55.098Z,9.8
2022-12-28T05:57:04.022Z,9.6
2022-12-28T06:07:12.424Z,9.8
2022-12-28T06:17:20.793Z,9.8
2022-12-28T06:27:28.892Z,9.7
2022-12-28T06:37:36.807Z,9.5
2022-12-28T06:47:44.945Z,9.7
2022-12-28T06:57:53.052Z,9.8
2022-12-28T07:07:53.670Z,9.5
2022-12-28T07:18:01.157Z,9.4
2022-12-28T07:28:09.198Z,9.4
2022-12-28T07:38:21.259Z,9.6
2022-12-28T07:48:26.496Z,9.7
2022-12-28T07:58:34.546Z,9.7
2022-12-28T08:08:39.768Z,10.2
2022-12-28T08:18:48.342Z,11
2022-12-28T08:28:47.925Z,11.5
2022-12-28T08:38:56.521Z,12
2022-12-28T08:49:04.866Z,12.8
2022-12-28T08:59:13.032Z,12.8
2022-12-28T09:09:21.409Z,13.2
2022-12-28T09:19:29.961Z,13.4
2022-12-28T09:29:38.035Z,14
2022-12-28T09:39:47.588Z,14.3
2022-12-28T09:49:55.011Z,14.7
2022-12-28T10:00:04.814Z,14.7
2022-12-28T10:10:04.044Z,14.9
2022-12-28T10:20:05.008Z,15.5
2022-12-28T10:30:14.268Z,15.7
2022-12-28T10:40:23.568Z,16.5
2022-12-28T10:50:37.648Z,16.4
2022-12-28T11:00:31.399Z,17.3
2022-12-28T11:10:34.464Z,17.4
2022-12-28T11:20:36.031Z,17.6
2022-12-28T11:30:40.407Z,18.2
2022-12-28T11:40:40.530Z,18.2
2022-12-28T11:50:48.709Z,18.4
2022-12-28T12:00:48.316Z,18.8
2022-12-28T12:10:55.561Z,19.2
2022-12-28T12:21:03.138Z,19.2
2022-12-28T12:31:13.343Z,19.4
2022-12-28T12:41:20.406Z,19.3
2022-12-28T12:51:19.656Z,19
2022-12-28T13:01:26.259Z,18.8
2022-12-28T13:11:29.533Z,18.4
2022-12-28T13:21:35.236Z,18.3
2022-12-28T13:31:36.061Z,18
2022-12-28T13:41:36.501Z,18
2022-12-28T13:51:49.794Z,18.1
2022-12-28T14:01:53.082Z,18.2
2022-12-28T14:11:53.574Z,17.8
2022-12-28T14:22:01.745Z,17.8
2022-12-28T14:32:09.376Z,18
2022-12-28T14:42:11.812Z,17.7
2022-12-28T14:52:19.849Z,17.8
2022-12-28T15:02:28.125Z,17.8
2022-12-28T15:12:35.916Z,17.8
2022-12-28T15:22:44.357Z,17.7
2022-12-28T15:32:52.158Z,17.6
2022-12-28T15:43:00.298Z,17.6
2022-12-28T15:53:09.094Z,17.7
2022-12-28T16:03:17.402Z,17.8
2022-12-28T16:13:25.526Z,17.5
2022-12-28T16:23:33.690Z,17.6
2022-12-28T16:33:42.948Z,17.1
2022-12-28T16:43:51.449Z,16.7
2022-12-28T16:54:00.720Z,16.5
2022-12-28T17:04:10.209Z,16.3
2022-12-28T17:14:35.581Z,16.1
2022-12-28T17:24:25.203Z,15.8
2022-12-28T17:34:26.990Z,15.7
2022-12-28T17:44:26.832Z,15.5
2022-12-28T17:54:26.747Z,15.4
2022-12-28T18:04:35.652Z,15.2
2022-12-28T18:14:44.158Z,15
2022-12-28T18:24:53.532Z,14.9
2022-12-28T18:35:01.935Z,14.8
2022-12-28T18:45:10.467Z,14.6
2022-12-28T18:55:18.715Z,14.5
2022-12-28T19:05:21.932Z,14.4
2022-12-28T19:15:31.644Z,14.6
2022-12-28T19:25:39.736Z,14
2022-12-28T19:45:43.657Z,13.8
2022-12-28T19:55:54.671Z,13.7
2022-12-28T20:05:59.486Z,13.6
2022-12-28T20:16:07.664Z,13.4
2022-12-28T20:26:16.322Z,13.3
2022-12-28T20:46:20.452Z,13
2022-12-28T20:56:29.038Z,12.9
2022-12-28T21:16:31.600Z,12.6
2022-12-28T21:26:41.336Z,12.5
2022-12-28T21:36:49.017Z,12.6
2022-12-28T21:46:49.816Z,12.7
2022-12-28T21:56:52.897Z,12.5
2022-12-28T22:07:03.319Z,13
2022-12-28T22:17:10.969Z,12.1
2022-12-28T22:27:15.953Z,12
2022-12-28T22:37:17.449Z,11.8
2022-12-28T22:47:25.763Z,11.7
2022-12-28T22:57:34.818Z,11.7
2022-12-28T23:07:35.396Z,11.6
2022-12-28T23:17:43.651Z,11.7
2022-12-28T23:27:51.799Z,11.8
2022-12-28T23:37:52.512Z,11.7
2022-12-28T23:48:02.077Z,11.4
2022-12-28T23:58:10.311Z,11.2
